Stations météo

Publicité
Mont Aigoual, France (7560): Température de l'air & dewpoint: 10.01.2019 17:00:00 - 16.01.2019 17:00:00 (CET)Mont Aigoual, France (7560): Vitesse du vent & gusts: 10.01.2019 17:00:00 - 16.01.2019 17:00:00 (CET)Mont Aigoual, France (7560): Direction du vent: 10.01.2019 17:00:00 - 16.01.2019 17:00:00 (CET)Mont Aigoual, France (7560): visibility: 10.01.2019 17:00:00 - 16.01.2019 17:00:00 (CET)Mont Aigoual, France (7560): Quantités de précipitations: 10.01.2019 17:00:00 - 16.01.2019 17:00:00 (CET)
Date & Time tt [°C] td [°C] ff [km/h] ff [knt] fx [km/h] fx [knt] dd vv [km] rr [mm]
16.01.2019 17:00:00 - - - - - - - - -
16.01.2019 16:00:00 -0,3 -0,6 33 18 44 24 S 4,3 0,0
16.01.2019 15:00:00 -0,8 -0,8 33 18 48 26 S 0,1 0,0
16.01.2019 14:00:00 -0,7 -0,8 34 18 47 25 S 0,1 0,0
16.01.2019 13:00:00 -0,7 -1,3 34 18 50 27 S 1,9 0,0
16.01.2019 12:00:00 -1,3 -1,6 35 19 45 24 S 0,2 0,0
16.01.2019 11:00:00 -0,3 -3,0 32 17 39 21 S 20 0,0
16.01.2019 10:00:00 -0,8 -2,8 34 18 45 24 S 20 0,0
16.01.2019 09:00:00 -1,0 -4,5 27 15 37 20 S 20 0,0
16.01.2019 08:00:00 0,4 -9,6 26 14 31 17 S 20 0,0
16.01.2019 07:00:00 1,7 -8,4 20 11 29 16 S 20 0,0
16.01.2019 06:00:00 1,7 -10,2 22 12 30 16 S 20 0,0
16.01.2019 05:00:00 2,7 -10,6 21 11 27 14 S 20 0,0
16.01.2019 04:00:00 2,4 -11,2 15 8 18 10 S 20 0,0
16.01.2019 03:00:00 2,8 -11,5 6 3 14 8 S 20 0,0
16.01.2019 02:00:00 4,3 -16,2 11 6 21 11 WSW 20 0,0
16.01.2019 01:00:00 4,4 -17,3 8 4 12 7 WSW 20 0,0
16.01.2019 00:00:00 3,7 -15,6 2 1 7 4 SW 20 0,0
15.01.2019 23:00:00 3,9 -13,4 6 3 16 8 N 20 0,0
15.01.2019 22:00:00 4,2 -16,2 11 6 23 13 N 20 0,0
15.01.2019 21:00:00 4,2 -14,6 23 12 24 13 N 20 0,0
15.01.2019 20:00:00 3,8 -12,6 22 12 27 15 N 20 0,0
15.01.2019 19:00:00 3,7 -11,5 22 12 23 12 N 20 0,0
15.01.2019 18:00:00 3,5 -10,2 18 10 - - N 20 0,0
15.01.2019 17:00:00 3,4 -7,7 - - - - - 20 0,0
15.01.2019 16:00:00 3,7 -7,4 - - - - - 20 -
15.01.2019 15:00:00 3,9 -7,0 - - - - - 20 0,0
15.01.2019 14:00:00 3,8 -7,7 - - - - - 20 0,0
15.01.2019 13:00:00 3,5 -7,9 24 13 36 20 NNE 20 0,0
15.01.2019 12:00:00 3,3 -7,8 23 12 54 29 N 20 0,0
15.01.2019 11:00:00 2,2 -10,4 - - - - - 20 0,0
15.01.2019 10:00:00 1,5 -12,0 51 27 68 37 N 20 0,0
15.01.2019 09:00:00 0,8 -14,8 44 24 68 37 N 20 0,0
15.01.2019 08:00:00 0,6 -14,6 49 26 81 44 N 20 0,0
15.01.2019 07:00:00 -0,7 -12,3 54 29 84 45 N 20 0,0
15.01.2019 06:00:00 -1,6 -9,5 53 28 84 45 N 20 0,0
15.01.2019 05:00:00 -2,1 -8,6 58 32 92 50 N 20 0,0
15.01.2019 04:00:00 -3,1 -7,1 61 33 93 50 N 20 0,0
15.01.2019 03:00:00 -2,6 -7,0 59 32 87 47 N 20 0,0
15.01.2019 02:00:00 -3,0 -6,1 57 31 98 53 N 20 0,0
15.01.2019 01:00:00 -3,5 -5,1 61 33 94 51 NNW 20 0,0
15.01.2019 00:00:00 -4,1 -4,6 67 36 106 57 NNW 20 0,0
14.01.2019 23:00:00 -4,1 -4,5 72 39 109 59 N 20 0,0
14.01.2019 22:00:00 -4,0 -4,5 73 40 111 60 N 20 0,0
14.01.2019 21:00:00 -3,6 -4,0 77 42 116 62 NNW 20 0,0
14.01.2019 20:00:00 -3,2 -3,7 93 50 128 69 NNW 20 0,0
14.01.2019 19:00:00 -2,3 -2,7 82 45 113 61 NNW 20 0,0
14.01.2019 18:00:00 -2,5 -3,1 87 47 117 63 NNW 20 0,0
14.01.2019 17:00:00 -2,0 -2,7 96 52 123 66 NNW 20 0,0
14.01.2019 16:00:00 -1,5 -2,1 95 52 130 70 NNW 20 0,0
14.01.2019 15:00:00 -1,3 -1,6 93 50 126 68 NNW 20 0,0
14.01.2019 14:00:00 -0,9 -0,9 87 47 117 63 NNW 17 0,0
14.01.2019 13:00:00 -1,0 -1,0 85 46 122 66 N 19 0,0
14.01.2019 12:00:00 -0,9 -0,9 - - - - - 0,2 0,0
14.01.2019 11:00:00 -1,1 -1,1 - - - - - 0,2 0,2
14.01.2019 10:00:00 -1,1 -1,1 - - - - - 0,2 0,0
14.01.2019 09:00:00 -0,9 -0,9 67 36 132 72 NNW 0,2 0,0
14.01.2019 08:00:00 -0,4 -0,4 74 40 129 70 NNW 0,2 0,2
14.01.2019 07:00:00 -0,4 -0,4 84 46 136 74 NW 0,1 0,2
14.01.2019 06:00:00 -0,3 -0,3 80 43 136 73 NNW 0,1 0,2
14.01.2019 05:00:00 -0,5 -0,5 72 39 - - NW 0,1 0,0
14.01.2019 04:00:00 -0,5 -0,5 - - - - - 0,1 0,0
14.01.2019 03:00:00 -0,6 -0,6 93 50 149 81 NW 0,1 0,2
14.01.2019 02:00:00 -0,2 -0,2 98 53 138 75 NW 0,4 0,2
14.01.2019 01:00:00 0,1 0,1 90 48 126 68 NW 0,2 0,4
14.01.2019 00:00:00 0,6 0,6 73 39 121 65 NNW 0,3 0,6
13.01.2019 23:00:00 0,6 0,6 85 46 121 66 NW 0,4 0,4
13.01.2019 22:00:00 0,4 0,4 36 20 114 62 WNW 0,4 0,2
13.01.2019 21:00:00 0,1 0,1 34 18 113 61 WNW 0,5 0,2
13.01.2019 20:00:00 0,1 0,1 11 6 91 49 NW 0,3 0,4
13.01.2019 19:00:00 0,1 0,1 18 10 90 49 W 0,5 0,4
13.01.2019 18:00:00 0,1 0,1 9 5 60 32 SSW 0,3 0,0
13.01.2019 17:00:00 0,0 0,0 7 4 60 32 S 0,4 0,2
13.01.2019 16:00:00 -0,1 -0,1 6 4 26 14 S 0,2 0,0
13.01.2019 15:00:00 -0,3 -0,3 10 5 29 16 S 0,1 0,0
13.01.2019 14:00:00 -0,5 -0,5 10 5 25 14 SSE 0,1 0,0
13.01.2019 13:00:00 -0,7 -0,7 11 6 35 19 SSE 0,1 0,0
13.01.2019 12:00:00 -1,0 -1,0 7 4 36 19 SSE 0,1 0,0
13.01.2019 11:00:00 -1,2 -1,2 7 4 - - SSE 0,1 0,0
13.01.2019 10:00:00 -1,6 -1,6 - - - - - 0,1 0,0
13.01.2019 09:00:00 -2,0 -2,0 - - - - - 0,1 0,0
13.01.2019 08:00:00 -2,4 -2,5 - - - - - 0,1 0,0
13.01.2019 07:00:00 -2,7 -2,8 - - - - - 0,1 0,0
13.01.2019 06:00:00 -3,0 -3,1 - - - - - 0,1 0,0
13.01.2019 05:00:00 -3,1 -3,2 - - - - - 0,1 0,0
13.01.2019 04:00:00 -3,2 -3,3 - - - - - 0,1 0,0
13.01.2019 03:00:00 -3,5 -3,6 - - - - - 0,1 0,0
13.01.2019 02:00:00 -3,6 -3,9 - - - - - 0,1 0,0
13.01.2019 01:00:00 -3,7 -4,0 86 47 - - NNW 0,1 0,0
13.01.2019 00:00:00 -3,6 -3,9 79 42 127 69 NNW - 0,0
12.01.2019 23:00:00 -3,8 -4,1 78 42 123 67 NNW 0,1 0,0
12.01.2019 22:00:00 -4,3 -4,6 87 47 154 83 NW 0,1 0,0
12.01.2019 21:00:00 -4,6 -4,9 106 57 149 81 NW 0,1 0,0
12.01.2019 20:00:00 -4,6 -4,9 89 48 115 62 NW 0,2 0,0
12.01.2019 19:00:00 -4,7 -5,0 83 45 108 59 NW 0,3 0,0
12.01.2019 18:00:00 -4,7 -5,1 85 46 135 73 NNW 2,2 0,0
12.01.2019 17:00:00 -4,4 -4,7 93 50 121 66 NNW 0,8 0,0
12.01.2019 16:00:00 -4,2 -4,5 85 46 120 65 NW 17 0,0
12.01.2019 15:00:00 -3,8 -4,1 68 37 110 59 NNW 16 0,0
12.01.2019 14:00:00 -3,6 -3,9 72 39 119 64 NNW 12 0,0
12.01.2019 13:00:00 -3,1 -3,2 81 44 128 69 NNW 0,2 0,0
12.01.2019 12:00:00 -2,9 -3,0 73 39 108 58 N 0,2 0,0
12.01.2019 11:00:00 -3,3 -3,4 82 45 145 78 NNW 0,1 0,0
12.01.2019 10:00:00 -3,5 -3,6 76 41 139 75 N 0,2 0,0
12.01.2019 09:00:00 -4,0 -4,3 101 55 130 70 NNW 0,3 0,0
12.01.2019 08:00:00 -4,1 -4,4 89 48 123 66 NNW 0,3 0,0
12.01.2019 07:00:00 -4,2 -4,5 81 44 114 62 NNW 0,1 0,0
12.01.2019 06:00:00 -4,3 -4,6 86 47 - - N 0,1 0,0
12.01.2019 05:00:00 -4,3 -4,6 93 50 - - NNW 0,1 0,0
12.01.2019 04:00:00 -4,3 -4,6 93 50 - - NNW 0,1 0,0
12.01.2019 03:00:00 -4,3 -4,6 - - 135 73 - 0,1 0,0
12.01.2019 02:00:00 -4,4 -4,7 86 46 159 86 NNW 0,1 0,0
12.01.2019 01:00:00 -4,3 -4,6 74 40 110 59 N 0,2 0,0
12.01.2019 00:00:00 -5,0 -5,4 83 45 109 59 N 0,1 0,0
11.01.2019 23:00:00 -5,2 -5,6 74 40 109 59 N 0,3 0,0
11.01.2019 22:00:00 -5,7 -6,1 89 48 121 65 N 0,2 0,0
11.01.2019 21:00:00 -6,5 -7,2 80 43 111 60 N 20 0,0
11.01.2019 20:00:00 -7,4 -8,5 80 43 108 59 N 20 0,0
11.01.2019 19:00:00 -6,4 -8,2 76 41 115 62 N 20 0,0
11.01.2019 18:00:00 -7,1 -10,0 81 44 117 63 N 20 0,0
11.01.2019 17:00:00 -7,0 -12,1 80 43 109 59 N 20 0,0
11.01.2019 16:00:00 -6,7 -13,0 75 41 114 61 N 20 0,0
11.01.2019 15:00:00 -6,3 -14,3 67 36 100 54 N 20 0,0
11.01.2019 14:00:00 -6,4 -14,0 60 33 78 42 N 20 0,0
11.01.2019 13:00:00 -6,8 -14,6 54 29 74 40 N 20 0,0
11.01.2019 12:00:00 -7,8 -13,1 59 32 86 47 N 20 0,0
11.01.2019 11:00:00 -7,8 -13,1 63 34 101 55 N 20 0,0
11.01.2019 10:00:00 -8,2 -13,2 76 41 105 57 N 20 0,0
11.01.2019 09:00:00 -9,0 -12,5 72 39 117 63 N 20 0,0
11.01.2019 08:00:00 -8,7 -13,5 60 33 102 55 N 20 0,0
11.01.2019 07:00:00 -10,2 -12,2 56 30 84 46 N 20 0,0
11.01.2019 06:00:00 -10,1 -12,1 59 32 79 43 N 20 0,0
11.01.2019 05:00:00 -9,4 -12,7 50 27 71 39 N 20 0,0
11.01.2019 04:00:00 -9,2 -12,5 51 27 80 43 N 20 0,0
11.01.2019 03:00:00 -9,5 -11,6 58 32 93 50 N 20 0,0
11.01.2019 02:00:00 -9,7 -10,8 58 31 88 47 N 20 0,0
11.01.2019 01:00:00 -9,5 -10,4 44 24 91 49 N 20 0,0
11.01.2019 00:00:00 -9,3 -10,2 69 37 99 54 N 20 0,0
10.01.2019 23:00:00 -8,8 -9,5 59 32 96 52 N 20 0,0
10.01.2019 22:00:00 -8,5 -10,0 62 34 96 52 N 20 0,0
10.01.2019 21:00:00 -8,7 -9,8 53 29 106 57 N 20 0,0
10.01.2019 20:00:00 -8,5 -9,2 64 34 98 53 N 20 0,0
10.01.2019 19:00:00 -8,4 -9,3 57 31 84 45 N 20 0,0
10.01.2019 18:00:00 -8,3 -9,6 65 35 85 46 N 20 0,0
10.01.2019 17:00:00 -7,8 -9,6 54 29 84 46 N 20 0,0

tt = Température de l'air
td = dewpoint
ff = Vitesse du vent
fx = gusts
dd = Direction du vent
vv = visibility
rr = Quantités de précipitations

stations d'obs. à proximité